sensor_id;sensor_type;location;lat;lon;timestamp;P1;durP1;ratioP1;P2;durP2;ratioP2
77022;SDS011;65952;51.440;-2.054;2023-02-11T00:01:07;11.20;;;4.80;;
77022;SDS011;65952;51.440;-2.054;2023-02-11T00:03:34;10.45;;;4.93;;
77022;SDS011;65952;51.440;-2.054;2023-02-11T00:06:01;9.18;;;4.53;;
77022;SDS011;65952;51.440;-2.054;2023-02-11T00:08:28;14.30;;;5.47;;
77022;SDS011;65952;51.440;-2.054;2023-02-11T00:10:54;11.13;;;4.07;;
77022;SDS011;65952;51.440;-2.054;2023-02-11T00:13:24;11.07;;;4.65;;
77022;SDS011;65952;51.440;-2.054;2023-02-11T00:15:50;10.73;;;4.32;;
77022;SDS011;65952;51.440;-2.054;2023-02-11T00:18:15;8.90;;;4.35;;
77022;SDS011;65952;51.440;-2.054;2023-02-11T00:20:41;13.80;;;4.53;;
77022;SDS011;65952;51.440;-2.054;2023-02-11T00:23:07;10.35;;;3.92;;
77022;SDS011;65952;51.440;-2.054;2023-02-11T00:25:33;9.80;;;4.13;;
77022;SDS011;65952;51.440;-2.054;2023-02-11T00:28:02;8.93;;;3.88;;
77022;SDS011;65952;51.440;-2.054;2023-02-11T00:30:27;12.00;;;5.25;;
77022;SDS011;65952;51.440;-2.054;2023-02-11T00:32:53;9.73;;;4.07;;
77022;SDS011;65952;51.440;-2.054;2023-02-11T00:35:18;10.10;;;4.43;;
77022;SDS011;65952;51.440;-2.054;2023-02-11T00:37:44;8.95;;;3.83;;
77022;SDS011;65952;51.440;-2.054;2023-02-11T00:40:09;9.82;;;4.65;;
77022;SDS011;65952;51.440;-2.054;2023-02-11T00:42:35;11.65;;;4.72;;
77022;SDS011;65952;51.440;-2.054;2023-02-11T00:45:01;8.60;;;3.55;;
77022;SDS011;65952;51.440;-2.054;2023-02-11T00:47:27;8.13;;;4.05;;
77022;SDS011;65952;51.440;-2.054;2023-02-11T00:49:52;10.40;;;4.40;;
77022;SDS011;65952;51.440;-2.054;2023-02-11T00:52:18;9.32;;;3.80;;
77022;SDS011;65952;51.440;-2.054;2023-02-11T00:54:43;7.03;;;3.38;;
77022;SDS011;65952;51.440;-2.054;2023-02-11T00:57:09;10.02;;;3.55;;
77022;SDS011;65952;51.440;-2.054;2023-02-11T00:59:34;10.80;;;4.45;;
77022;SDS011;65952;51.440;-2.054;2023-02-11T01:01:59;8.32;;;3.58;;
77022;SDS011;65952;51.440;-2.054;2023-02-11T01:04:25;6.95;;;3.28;;
77022;SDS011;65952;51.440;-2.054;2023-02-11T01:06:50;9.70;;;3.40;;
77022;SDS011;65952;51.440;-2.054;2023-02-11T01:09:16;7.50;;;3.40;;
77022;SDS011;65952;51.440;-2.054;2023-02-11T01:11:41;9.15;;;3.75;;
77022;SDS011;65952;51.440;-2.054;2023-02-11T01:14:07;8.15;;;3.83;;
77022;SDS011;65952;51.440;-2.054;2023-02-11T01:16:33;8.63;;;3.55;;
77022;SDS011;65952;51.440;-2.054;2023-02-11T01:18:58;8.52;;;4.10;;
77022;SDS011;65952;51.440;-2.054;2023-02-11T01:21:24;7.53;;;3.60;;
77022;SDS011;65952;51.440;-2.054;2023-02-11T01:23:49;6.93;;;3.38;;
77022;SDS011;65952;51.440;-2.054;2023-02-11T01:26:17;9.02;;;3.80;;
77022;SDS011;65952;51.440;-2.054;2023-02-11T01:28:43;11.48;;;3.80;;
77022;SDS011;65952;51.440;-2.054;2023-02-11T01:31:09;8.57;;;3.67;;
77022;SDS011;65952;51.440;-2.054;2023-02-11T01:33:34;9.95;;;3.92;;
77022;SDS011;65952;51.440;-2.054;2023-02-11T01:36:03;10.63;;;4.13;;
77022;SDS011;65952;51.440;-2.054;2023-02-11T01:38:29;11.27;;;4.07;;
77022;SDS011;65952;51.440;-2.054;2023-02-11T01:40:57;9.82;;;4.10;;
77022;SDS011;65952;51.440;-2.054;2023-02-11T01:43:28;9.65;;;4.00;;
77022;SDS011;65952;51.440;-2.054;2023-02-11T01:48:37;9.15;;;3.60;;
77022;SDS011;65952;51.440;-2.054;2023-02-11T01:51:08;6.47;;;3.45;;
77022;SDS011;65952;51.440;-2.054;2023-02-11T01:53:38;9.27;;;3.90;;
77022;SDS011;65952;51.440;-2.054;2023-02-11T01:56:23;8.85;;;3.88;;
77022;SDS011;65952;51.440;-2.054;2023-02-11T01:59:17;9.10;;;3.55;;
77022;SDS011;65952;51.440;-2.054;2023-02-11T02:01:49;8.50;;;3.80;;
77022;SDS011;65952;51.440;-2.054;2023-02-11T02:04:17;9.25;;;3.40;;
77022;SDS011;65952;51.440;-2.054;2023-02-11T02:06:51;8.15;;;3.38;;
77022;SDS011;65952;51.440;-2.054;2023-02-11T02:09:27;7.40;;;3.83;;
77022;SDS011;65952;51.440;-2.054;2023-02-11T02:11:58;7.18;;;3.50;;
77022;SDS011;65952;51.440;-2.054;2023-02-11T02:14:23;7.50;;;3.40;;
77022;SDS011;65952;51.440;-2.054;2023-02-11T02:16:50;9.75;;;3.75;;
77022;SDS011;65952;51.440;-2.054;2023-02-11T02:37:35;11.57;;;4.03;;
77022;SDS011;65952;51.440;-2.054;2023-02-11T02:40:09;7.15;;;3.20;;
77022;SDS011;65952;51.440;-2.054;2023-02-11T02:42:40;7.88;;;3.00;;
77022;SDS011;65952;51.440;-2.054;2023-02-11T02:45:07;6.72;;;3.03;;
77022;SDS011;65952;51.440;-2.054;2023-02-11T02:47:35;9.98;;;3.20;;
77022;SDS011;65952;51.440;-2.054;2023-02-11T02:50:00;5.88;;;3.00;;
77022;SDS011;65952;51.440;-2.054;2023-02-11T02:52:34;7.43;;;3.20;;
77022;SDS011;65952;51.440;-2.054;2023-02-11T03:00:58;8.20;;;2.80;;
77022;SDS011;65952;51.440;-2.054;2023-02-11T03:08:57;14.70;;;2.92;;
77022;SDS011;65952;51.440;-2.054;2023-02-11T03:11:26;10.20;;;2.65;;
77022;SDS011;65952;51.440;-2.054;2023-02-11T03:13:53;8.02;;;3.00;;
77022;SDS011;65952;51.440;-2.054;2023-02-11T03:16:21;10.93;;;3.17;;
77022;SDS011;65952;51.440;-2.054;2023-02-11T03:19:01;6.57;;;2.90;;
77022;SDS011;65952;51.440;-2.054;2023-02-11T03:21:30;9.73;;;3.35;;
77022;SDS011;65952;51.440;-2.054;2023-02-11T03:24:01;6.78;;;2.75;;
77022;SDS011;65952;51.440;-2.054;2023-02-11T03:35:13;7.32;;;2.63;;
77022;SDS011;65952;51.440;-2.054;2023-02-11T03:37:58;11.23;;;3.50;;
77022;SDS011;65952;51.440;-2.054;2023-02-11T03:40:31;7.20;;;2.80;;
77022;SDS011;65952;51.440;-2.054;2023-02-11T03:43:05;8.43;;;2.50;;
77022;SDS011;65952;51.440;-2.054;2023-02-11T03:45:36;8.38;;;2.53;;
77022;SDS011;65952;51.440;-2.054;2023-02-11T03:48:04;10.20;;;2.78;;
77022;SDS011;65952;51.440;-2.054;2023-02-11T03:50:35;6.60;;;2.53;;
77022;SDS011;65952;51.440;-2.054;2023-02-11T03:53:02;6.68;;;2.63;;
77022;SDS011;65952;51.440;-2.054;2023-02-11T03:55:29;6.50;;;2.58;;
77022;SDS011;65952;51.440;-2.054;2023-02-11T03:57:59;10.63;;;3.08;;
77022;SDS011;65952;51.440;-2.054;2023-02-11T04:00:31;4.63;;;2.40;;
77022;SDS011;65952;51.440;-2.054;2023-02-11T04:03:00;7.47;;;2.75;;
77022;SDS011;65952;51.440;-2.054;2023-02-11T04:05:26;5.97;;;2.30;;
77022;SDS011;65952;51.440;-2.054;2023-02-11T04:07:51;5.32;;;2.20;;
77022;SDS011;65952;51.440;-2.054;2023-02-11T04:10:16;7.45;;;2.42;;
77022;SDS011;65952;51.440;-2.054;2023-02-11T04:12:42;5.80;;;2.10;;
77022;SDS011;65952;51.440;-2.054;2023-02-11T04:15:08;5.13;;;2.33;;
77022;SDS011;65952;51.440;-2.054;2023-02-11T04:17:34;5.35;;;2.38;;
77022;SDS011;65952;51.440;-2.054;2023-02-11T04:19:59;6.68;;;2.30;;
77022;SDS011;65952;51.440;-2.054;2023-02-11T04:22:25;6.97;;;2.53;;
77022;SDS011;65952;51.440;-2.054;2023-02-11T04:24:50;5.30;;;2.10;;
77022;SDS011;65952;51.440;-2.054;2023-02-11T04:27:15;9.70;;;3.13;;
77022;SDS011;65952;51.440;-2.054;2023-02-11T04:29:41;9.15;;;2.80;;
77022;SDS011;65952;51.440;-2.054;2023-02-11T04:32:06;4.85;;;2.53;;
77022;SDS011;65952;51.440;-2.054;2023-02-11T04:34:32;7.03;;;2.22;;
77022;SDS011;65952;51.440;-2.054;2023-02-11T04:36:57;9.38;;;2.50;;
77022;SDS011;65952;51.440;-2.054;2023-02-11T04:39:23;5.40;;;2.40;;
77022;SDS011;65952;51.440;-2.054;2023-02-11T04:41:48;4.70;;;2.55;;
77022;SDS011;65952;51.440;-2.054;2023-02-11T04:44:14;4.38;;;2.35;;
77022;SDS011;65952;51.440;-2.054;2023-02-11T04:46:39;6.18;;;2.42;;
77022;SDS011;65952;51.440;-2.054;2023-02-11T04:49:04;7.35;;;2.70;;
77022;SDS011;65952;51.440;-2.054;2023-02-11T04:51:30;7.75;;;2.80;;
77022;SDS011;65952;51.440;-2.054;2023-02-11T04:53:57;6.68;;;2.80;;
77022;SDS011;65952;51.440;-2.054;2023-02-11T04:56:22;6.85;;;2.60;;
77022;SDS011;65952;51.440;-2.054;2023-02-11T04:58:47;7.10;;;3.22;;
77022;SDS011;65952;51.440;-2.054;2023-02-11T05:01:13;6.75;;;3.03;;
77022;SDS011;65952;51.440;-2.054;2023-02-11T05:03:40;6.70;;;2.90;;
77022;SDS011;65952;51.440;-2.054;2023-02-11T05:06:07;9.10;;;3.00;;
77022;SDS011;65952;51.440;-2.054;2023-02-11T05:08:33;9.38;;;3.17;;
77022;SDS011;65952;51.440;-2.054;2023-02-11T05:10:59;8.85;;;2.78;;
77022;SDS011;65952;51.440;-2.054;2023-02-11T05:13:26;8.20;;;2.92;;
77022;SDS011;65952;51.440;-2.054;2023-02-11T05:15:52;8.93;;;3.35;;
77022;SDS011;65952;51.440;-2.054;2023-02-11T05:18:18;10.50;;;3.17;;
77022;SDS011;65952;51.440;-2.054;2023-02-11T05:20:43;7.15;;;2.53;;
77022;SDS011;65952;51.440;-2.054;2023-02-11T05:23:09;8.50;;;3.13;;
77022;SDS011;65952;51.440;-2.054;2023-02-11T05:25:35;5.95;;;2.60;;
77022;SDS011;65952;51.440;-2.054;2023-02-11T05:28:00;8.15;;;2.67;;
77022;SDS011;65952;51.440;-2.054;2023-02-11T05:30:29;8.70;;;3.22;;
77022;SDS011;65952;51.440;-2.054;2023-02-11T05:32:54;7.53;;;2.65;;
77022;SDS011;65952;51.440;-2.054;2023-02-11T05:35:20;6.28;;;2.53;;
77022;SDS011;65952;51.440;-2.054;2023-02-11T05:37:46;8.48;;;3.03;;
77022;SDS011;65952;51.440;-2.054;2023-02-11T05:40:11;6.40;;;2.78;;
77022;SDS011;65952;51.440;-2.054;2023-02-11T05:42:37;5.85;;;2.55;;
77022;SDS011;65952;51.440;-2.054;2023-02-11T05:45:03;9.02;;;2.60;;
77022;SDS011;65952;51.440;-2.054;2023-02-11T05:47:29;6.50;;;2.70;;
77022;SDS011;65952;51.440;-2.054;2023-02-11T05:49:55;7.00;;;2.70;;
77022;SDS011;65952;51.440;-2.054;2023-02-11T05:52:26;6.68;;;2.90;;
77022;SDS011;65952;51.440;-2.054;2023-02-11T05:54:52;6.05;;;2.38;;
77022;SDS011;65952;51.440;-2.054;2023-02-11T05:57:17;7.50;;;2.78;;
77022;SDS011;65952;51.440;-2.054;2023-02-11T05:59:43;7.68;;;2.67;;
77022;SDS011;65952;51.440;-2.054;2023-02-11T06:02:08;5.13;;;2.50;;
77022;SDS011;65952;51.440;-2.054;2023-02-11T06:04:35;8.43;;;2.92;;
77022;SDS011;65952;51.440;-2.054;2023-02-11T06:07:01;5.82;;;2.55;;
77022;SDS011;65952;51.440;-2.054;2023-02-11T06:09:27;5.50;;;2.70;;
77022;SDS011;65952;51.440;-2.054;2023-02-11T06:11:52;7.45;;;2.90;;
77022;SDS011;65952;51.440;-2.054;2023-02-11T06:14:18;7.13;;;2.95;;
77022;SDS011;65952;51.440;-2.054;2023-02-11T06:16:43;5.88;;;2.70;;
77022;SDS011;65952;51.440;-2.054;2023-02-11T06:19:09;6.72;;;2.75;;
77022;SDS011;65952;51.440;-2.054;2023-02-11T06:21:35;5.25;;;2.85;;
77022;SDS011;65952;51.440;-2.054;2023-02-11T06:24:01;8.18;;;2.83;;
77022;SDS011;65952;51.440;-2.054;2023-02-11T06:26:26;9.52;;;2.80;;
77022;SDS011;65952;51.440;-2.054;2023-02-11T06:28:52;5.72;;;2.90;;
77022;SDS011;65952;51.440;-2.054;2023-02-11T06:31:17;5.53;;;2.97;;
77022;SDS011;65952;51.440;-2.054;2023-02-11T06:33:43;5.40;;;2.72;;
77022;SDS011;65952;51.440;-2.054;2023-02-11T06:36:16;8.80;;;2.40;;
77022;SDS011;65952;51.440;-2.054;2023-02-11T06:38:43;7.30;;;2.80;;
77022;SDS011;65952;51.440;-2.054;2023-02-11T06:41:09;7.47;;;2.75;;
77022;SDS011;65952;51.440;-2.054;2023-02-11T06:43:36;8.35;;;2.60;;
77022;SDS011;65952;51.440;-2.054;2023-02-11T06:46:01;6.80;;;2.85;;
77022;SDS011;65952;51.440;-2.054;2023-02-11T06:48:27;11.18;;;3.30;;
77022;SDS011;65952;51.440;-2.054;2023-02-11T06:50:52;6.72;;;2.60;;
77022;SDS011;65952;51.440;-2.054;2023-02-11T06:53:18;6.43;;;2.60;;
77022;SDS011;65952;51.440;-2.054;2023-02-11T06:55:43;9.98;;;3.70;;
77022;SDS011;65952;51.440;-2.054;2023-02-11T06:58:09;7.18;;;3.10;;
77022;SDS011;65952;51.440;-2.054;2023-02-11T07:00:35;5.25;;;2.53;;
77022;SDS011;65952;51.440;-2.054;2023-02-11T07:03:00;8.15;;;2.95;;
77022;SDS011;65952;51.440;-2.054;2023-02-11T07:05:26;10.55;;;3.25;;
77022;SDS011;65952;51.440;-2.054;2023-02-11T07:07:51;8.20;;;2.80;;
77022;SDS011;65952;51.440;-2.054;2023-02-11T07:10:17;8.27;;;2.80;;
77022;SDS011;65952;51.440;-2.054;2023-02-11T07:12:42;11.65;;;3.20;;
77022;SDS011;65952;51.440;-2.054;2023-02-11T07:15:08;8.68;;;3.67;;
77022;SDS011;65952;51.440;-2.054;2023-02-11T07:17:34;7.13;;;2.85;;
77022;SDS011;65952;51.440;-2.054;2023-02-11T07:20:00;7.07;;;3.05;;
77022;SDS011;65952;51.440;-2.054;2023-02-11T07:22:25;8.70;;;3.22;;
77022;SDS011;65952;51.440;-2.054;2023-02-11T07:24:51;6.68;;;2.70;;
77022;SDS011;65952;51.440;-2.054;2023-02-11T07:27:17;11.85;;;4.43;;
77022;SDS011;65952;51.440;-2.054;2023-02-11T07:29:42;7.15;;;2.83;;
77022;SDS011;65952;51.440;-2.054;2023-02-11T07:32:11;9.82;;;3.22;;
77022;SDS011;65952;51.440;-2.054;2023-02-11T07:34:37;5.95;;;2.85;;
77022;SDS011;65952;51.440;-2.054;2023-02-11T07:37:02;7.18;;;3.25;;
77022;SDS011;65952;51.440;-2.054;2023-02-11T07:39:28;7.90;;;2.75;;
77022;SDS011;65952;51.440;-2.054;2023-02-11T07:41:59;7.75;;;3.22;;
77022;SDS011;65952;51.440;-2.054;2023-02-11T07:44:24;8.90;;;3.55;;
77022;SDS011;65952;51.440;-2.054;2023-02-11T07:46:49;7.68;;;3.17;;
77022;SDS011;65952;51.440;-2.054;2023-02-11T07:49:15;6.13;;;3.00;;
77022;SDS011;65952;51.440;-2.054;2023-02-11T07:51:41;8.20;;;3.20;;
77022;SDS011;65952;51.440;-2.054;2023-02-11T07:54:06;9.18;;;3.15;;
77022;SDS011;65952;51.440;-2.054;2023-02-11T07:56:32;9.75;;;4.22;;
77022;SDS011;65952;51.440;-2.054;2023-02-11T07:58:59;8.80;;;3.13;;
77022;SDS011;65952;51.440;-2.054;2023-02-11T08:01:27;7.30;;;3.00;;
77022;SDS011;65952;51.440;-2.054;2023-02-11T08:03:54;9.20;;;2.92;;
77022;SDS011;65952;51.440;-2.054;2023-02-11T08:06:22;13.25;;;3.20;;
77022;SDS011;65952;51.440;-2.054;2023-02-11T08:08:48;8.10;;;3.20;;
77022;SDS011;65952;51.440;-2.054;2023-02-11T08:11:15;8.75;;;3.58;;
77022;SDS011;65952;51.440;-2.054;2023-02-11T08:13:49;6.97;;;3.10;;
77022;SDS011;65952;51.440;-2.054;2023-02-11T08:16:20;8.63;;;3.55;;
77022;SDS011;65952;51.440;-2.054;2023-02-11T08:18:57;7.72;;;3.60;;
77022;SDS011;65952;51.440;-2.054;2023-02-11T08:21:24;8.38;;;3.28;;
77022;SDS011;65952;51.440;-2.054;2023-02-11T08:23:50;6.70;;;3.17;;
77022;SDS011;65952;51.440;-2.054;2023-02-11T08:26:17;9.27;;;4.20;;
77022;SDS011;65952;51.440;-2.054;2023-02-11T08:28:44;11.00;;;3.83;;
77022;SDS011;65952;51.440;-2.054;2023-02-11T08:31:11;9.25;;;3.42;;
77022;SDS011;65952;51.440;-2.054;2023-02-11T08:33:42;8.75;;;3.88;;
77022;SDS011;65952;51.440;-2.054;2023-02-11T08:36:13;10.27;;;2.97;;
77022;SDS011;65952;51.440;-2.054;2023-02-11T08:38:40;6.63;;;2.83;;
77022;SDS011;65952;51.440;-2.054;2023-02-11T08:41:06;8.27;;;3.28;;
77022;SDS011;65952;51.440;-2.054;2023-02-11T08:43:34;7.07;;;2.88;;
77022;SDS011;65952;51.440;-2.054;2023-02-11T08:46:00;9.15;;;3.40;;
77022;SDS011;65952;51.440;-2.054;2023-02-11T08:48:27;8.52;;;3.20;;
77022;SDS011;65952;51.440;-2.054;2023-02-11T08:50:53;7.50;;;2.75;;
77022;SDS011;65952;51.440;-2.054;2023-02-11T08:53:19;8.23;;;2.60;;
77022;SDS011;65952;51.440;-2.054;2023-02-11T08:55:54;7.63;;;2.88;;
77022;SDS011;65952;51.440;-2.054;2023-02-11T08:58:20;4.47;;;2.30;;
77022;SDS011;65952;51.440;-2.054;2023-02-11T09:00:46;7.22;;;2.53;;
77022;SDS011;65952;51.440;-2.054;2023-02-11T09:03:13;9.02;;;2.92;;
77022;SDS011;65952;51.440;-2.054;2023-02-11T09:05:40;6.65;;;2.30;;
77022;SDS011;65952;51.440;-2.054;2023-02-11T09:08:13;5.80;;;2.60;;
77022;SDS011;65952;51.440;-2.054;2023-02-11T09:10:39;5.82;;;2.72;;
77022;SDS011;65952;51.440;-2.054;2023-02-11T09:13:05;9.98;;;3.05;;
77022;SDS011;65952;51.440;-2.054;2023-02-11T09:15:31;8.95;;;3.00;;
77022;SDS011;65952;51.440;-2.054;2023-02-11T09:17:57;11.48;;;3.80;;
77022;SDS011;65952;51.440;-2.054;2023-02-11T09:20:22;10.32;;;4.35;;
77022;SDS011;65952;51.440;-2.054;2023-02-11T09:22:48;11.00;;;4.13;;
77022;SDS011;65952;51.440;-2.054;2023-02-11T09:25:14;11.82;;;4.40;;
77022;SDS011;65952;51.440;-2.054;2023-02-11T09:27:40;10.68;;;5.00;;
77022;SDS011;65952;51.440;-2.054;2023-02-11T09:30:05;11.77;;;5.43;;
77022;SDS011;65952;51.440;-2.054;2023-02-11T09:32:31;15.80;;;6.35;;
77022;SDS011;65952;51.440;-2.054;2023-02-11T09:34:56;14.02;;;6.38;;
77022;SDS011;65952;51.440;-2.054;2023-02-11T09:37:22;13.25;;;5.22;;
77022;SDS011;65952;51.440;-2.054;2023-02-11T09:39:47;12.23;;;6.20;;
77022;SDS011;65952;51.440;-2.054;2023-02-11T09:47:29;13.45;;;6.20;;
77022;SDS011;65952;51.440;-2.054;2023-02-11T09:50:01;11.57;;;5.88;;
77022;SDS011;65952;51.440;-2.054;2023-02-11T09:52:31;14.57;;;6.57;;
77022;SDS011;65952;51.440;-2.054;2023-02-11T09:54:58;16.25;;;6.97;;
77022;SDS011;65952;51.440;-2.054;2023-02-11T09:57:27;15.95;;;6.45;;
77022;SDS011;65952;51.440;-2.054;2023-02-11T09:59:57;16.25;;;6.65;;
77022;SDS011;65952;51.440;-2.054;2023-02-11T10:16:17;12.70;;;5.93;;
77022;SDS011;65952;51.440;-2.054;2023-02-11T10:18:49;15.80;;;6.18;;
77022;SDS011;65952;51.440;-2.054;2023-02-11T10:22:14;12.68;;;5.90;;
77022;SDS011;65952;51.440;-2.054;2023-02-11T10:24:19;11.05;;;5.53;;
77022;SDS011;65952;51.440;-2.054;2023-02-11T10:26:46;12.25;;;5.72;;
77022;SDS011;65952;51.440;-2.054;2023-02-11T10:29:34;14.93;;;5.35;;
77022;SDS011;65952;51.440;-2.054;2023-02-11T10:32:00;10.68;;;5.07;;
77022;SDS011;65952;51.440;-2.054;2023-02-11T10:34:31;12.40;;;5.20;;
77022;SDS011;65952;51.440;-2.054;2023-02-11T10:36:56;9.30;;;4.25;;
77022;SDS011;65952;51.440;-2.054;2023-02-11T10:39:25;11.77;;;4.22;;
77022;SDS011;65952;51.440;-2.054;2023-02-11T10:41:56;6.32;;;2.97;;
77022;SDS011;65952;51.440;-2.054;2023-02-11T10:44:27;7.18;;;3.50;;
77022;SDS011;65952;51.440;-2.054;2023-02-11T10:46:56;6.93;;;2.83;;
77022;SDS011;65952;51.440;-2.054;2023-02-11T10:49:34;12.95;;;3.72;;
77022;SDS011;65952;51.440;-2.054;2023-02-11T10:52:20;6.10;;;2.42;;
77022;SDS011;65952;51.440;-2.054;2023-02-11T10:55:00;6.43;;;2.53;;
77022;SDS011;65952;51.440;-2.054;2023-02-11T10:57:34;7.25;;;2.72;;
77022;SDS011;65952;51.440;-2.054;2023-02-11T11:00:31;7.22;;;2.25;;
77022;SDS011;65952;51.440;-2.054;2023-02-11T11:02:54;6.20;;;2.95;;
77022;SDS011;65952;51.440;-2.054;2023-02-11T11:05:33;4.95;;;2.25;;
77022;SDS011;65952;51.440;-2.054;2023-02-11T11:08:03;4.55;;;2.13;;
77022;SDS011;65952;51.440;-2.054;2023-02-11T11:13:01;4.78;;;2.22;;
77022;SDS011;65952;51.440;-2.054;2023-02-11T11:15:28;5.72;;;2.05;;
77022;SDS011;65952;51.440;-2.054;2023-02-11T11:18:14;4.68;;;1.80;;
77022;SDS011;65952;51.440;-2.054;2023-02-11T11:23:22;4.53;;;2.00;;
77022;SDS011;65952;51.440;-2.054;2023-02-11T11:28:27;5.45;;;2.10;;
77022;SDS011;65952;51.440;-2.054;2023-02-11T11:30:55;4.10;;;1.67;;
77022;SDS011;65952;51.440;-2.054;2023-02-11T11:33:33;4.30;;;1.80;;
77022;SDS011;65952;51.440;-2.054;2023-02-11T11:36:01;3.08;;;1.70;;
77022;SDS011;65952;51.440;-2.054;2023-02-11T11:38:43;6.05;;;1.92;;
77022;SDS011;65952;51.440;-2.054;2023-02-11T11:44:03;4.22;;;1.77;;
77022;SDS011;65952;51.440;-2.054;2023-02-11T11:46:50;4.15;;;1.90;;
77022;SDS011;65952;51.440;-2.054;2023-02-11T11:49:29;5.20;;;1.83;;
77022;SDS011;65952;51.440;-2.054;2023-02-11T11:52:09;5.57;;;1.90;;
77022;SDS011;65952;51.440;-2.054;2023-02-11T11:54:58;3.78;;;1.65;;
77022;SDS011;65952;51.440;-2.054;2023-02-11T11:57:29;4.70;;;1.98;;
77022;SDS011;65952;51.440;-2.054;2023-02-11T11:59:57;4.03;;;1.98;;
77022;SDS011;65952;51.440;-2.054;2023-02-11T12:08:50;3.42;;;1.80;;
77022;SDS011;65952;51.440;-2.054;2023-02-11T12:25:47;4.63;;;2.00;;
77022;SDS011;65952;51.440;-2.054;2023-02-11T12:28:36;4.22;;;1.88;;
77022;SDS011;65952;51.440;-2.054;2023-02-11T12:42:46;6.00;;;2.35;;
77022;SDS011;65952;51.440;-2.054;2023-02-11T12:54:34;3.75;;;1.67;;
77022;SDS011;65952;51.440;-2.054;2023-02-11T12:57:06;4.03;;;1.90;;
77022;SDS011;65952;51.440;-2.054;2023-02-11T12:59:57;4.82;;;1.80;;
77022;SDS011;65952;51.440;-2.054;2023-02-11T13:02:48;4.15;;;1.50;;
77022;SDS011;65952;51.440;-2.054;2023-02-11T13:08:24;2.63;;;1.40;;
77022;SDS011;65952;51.440;-2.054;2023-02-11T13:10:58;3.55;;;1.52;;
77022;SDS011;65952;51.440;-2.054;2023-02-11T13:13:32;3.75;;;1.63;;
77022;SDS011;65952;51.440;-2.054;2023-02-11T13:16:19;3.25;;;1.48;;
77022;SDS011;65952;51.440;-2.054;2023-02-11T13:24:58;4.90;;;1.70;;
77022;SDS011;65952;51.440;-2.054;2023-02-11T13:38:03;4.03;;;1.60;;
77022;SDS011;65952;51.440;-2.054;2023-02-11T13:40:34;3.28;;;1.88;;
77022;SDS011;65952;51.440;-2.054;2023-02-11T13:43:02;2.08;;;1.27;;
77022;SDS011;65952;51.440;-2.054;2023-02-11T13:45:32;3.33;;;1.70;;
77022;SDS011;65952;51.440;-2.054;2023-02-11T13:48:02;4.38;;;1.80;;
77022;SDS011;65952;51.440;-2.054;2023-02-11T13:50:31;7.50;;;1.92;;
77022;SDS011;65952;51.440;-2.054;2023-02-11T13:53:06;3.85;;;1.55;;
77022;SDS011;65952;51.440;-2.054;2023-02-11T13:55:32;3.78;;;1.80;;
77022;SDS011;65952;51.440;-2.054;2023-02-11T14:09:31;3.33;;;1.70;;
77022;SDS011;65952;51.440;-2.054;2023-02-11T14:11:51;4.60;;;1.83;;
77022;SDS011;65952;51.440;-2.054;2023-02-11T14:14:21;4.72;;;2.30;;
77022;SDS011;65952;51.440;-2.054;2023-02-11T14:19:43;5.05;;;2.20;;
77022;SDS011;65952;51.440;-2.054;2023-02-11T14:32:38;4.22;;;2.17;;
77022;SDS011;65952;51.440;-2.054;2023-02-11T14:40:48;5.55;;;2.53;;
77022;SDS011;65952;51.440;-2.054;2023-02-11T14:43:24;4.80;;;2.50;;
77022;SDS011;65952;51.440;-2.054;2023-02-11T14:45:55;6.68;;;3.05;;
77022;SDS011;65952;51.440;-2.054;2023-02-11T14:48:44;3.90;;;2.35;;
77022;SDS011;65952;51.440;-2.054;2023-02-11T14:51:20;7.25;;;2.75;;
77022;SDS011;65952;51.440;-2.054;2023-02-11T14:54:00;6.18;;;2.92;;
77022;SDS011;65952;51.440;-2.054;2023-02-11T14:56:37;6.07;;;2.97;;
77022;SDS011;65952;51.440;-2.054;2023-02-11T14:59:12;6.72;;;3.17;;
77022;SDS011;65952;51.440;-2.054;2023-02-11T15:01:43;7.60;;;2.70;;
77022;SDS011;65952;51.440;-2.054;2023-02-11T15:04:26;6.05;;;2.95;;
77022;SDS011;65952;51.440;-2.054;2023-02-11T15:06:53;9.60;;;3.08;;
77022;SDS011;65952;51.440;-2.054;2023-02-11T15:11:55;5.30;;;2.75;;
77022;SDS011;65952;51.440;-2.054;2023-02-11T15:14:26;6.80;;;2.67;;
77022;SDS011;65952;51.440;-2.054;2023-02-11T15:16:55;5.30;;;3.08;;
77022;SDS011;65952;51.440;-2.054;2023-02-11T15:21:48;9.15;;;4.43;;
77022;SDS011;65952;51.440;-2.054;2023-02-11T15:24:28;7.22;;;4.38;;
77022;SDS011;65952;51.440;-2.054;2023-02-11T15:29:38;6.93;;;3.95;;
77022;SDS011;65952;51.440;-2.054;2023-02-11T15:32:09;7.00;;;3.35;;
77022;SDS011;65952;51.440;-2.054;2023-02-11T15:34:37;6.10;;;3.17;;
77022;SDS011;65952;51.440;-2.054;2023-02-11T15:37:06;5.53;;;2.80;;
77022;SDS011;65952;51.440;-2.054;2023-02-11T15:42:16;9.38;;;4.35;;
77022;SDS011;65952;51.440;-2.054;2023-02-11T15:44:43;5.95;;;3.03;;
77022;SDS011;65952;51.440;-2.054;2023-02-11T15:47:09;6.07;;;2.95;;
77022;SDS011;65952;51.440;-2.054;2023-02-11T15:49:36;5.40;;;3.00;;
77022;SDS011;65952;51.440;-2.054;2023-02-11T15:52:01;7.45;;;3.30;;
77022;SDS011;65952;51.440;-2.054;2023-02-11T15:54:32;7.63;;;3.03;;
77022;SDS011;65952;51.440;-2.054;2023-02-11T15:56:58;9.90;;;4.00;;
77022;SDS011;65952;51.440;-2.054;2023-02-11T15:59:32;8.43;;;4.03;;
77022;SDS011;65952;51.440;-2.054;2023-02-11T16:04:34;6.88;;;4.05;;
77022;SDS011;65952;51.440;-2.054;2023-02-11T16:07:01;7.55;;;3.83;;
77022;SDS011;65952;51.440;-2.054;2023-02-11T16:09:31;6.07;;;3.40;;
77022;SDS011;65952;51.440;-2.054;2023-02-11T16:11:59;7.32;;;3.20;;
77022;SDS011;65952;51.440;-2.054;2023-02-11T16:19:40;6.47;;;3.20;;
77022;SDS011;65952;51.440;-2.054;2023-02-11T16:22:09;7.65;;;3.65;;
77022;SDS011;65952;51.440;-2.054;2023-02-11T16:24:44;14.15;;;6.15;;
77022;SDS011;65952;51.440;-2.054;2023-02-11T16:27:24;16.10;;;7.95;;
77022;SDS011;65952;51.440;-2.054;2023-02-11T16:29:55;16.75;;;8.65;;
77022;SDS011;65952;51.440;-2.054;2023-02-11T16:34:49;8.25;;;3.78;;
77022;SDS011;65952;51.440;-2.054;2023-02-11T16:37:15;6.40;;;2.80;;
77022;SDS011;65952;51.440;-2.054;2023-02-11T16:39:41;6.55;;;2.97;;
77022;SDS011;65952;51.440;-2.054;2023-02-11T16:42:06;5.63;;;2.70;;
77022;SDS011;65952;51.440;-2.054;2023-02-11T16:44:32;7.07;;;3.38;;
77022;SDS011;65952;51.440;-2.054;2023-02-11T16:46:58;4.95;;;2.55;;
77022;SDS011;65952;51.440;-2.054;2023-02-11T16:49:26;8.63;;;2.75;;
77022;SDS011;65952;51.440;-2.054;2023-02-11T16:52:00;3.95;;;2.10;;
77022;SDS011;65952;51.440;-2.054;2023-02-11T16:56:54;8.02;;;2.80;;
77022;SDS011;65952;51.440;-2.054;2023-02-11T16:59:20;6.90;;;2.45;;
77022;SDS011;65952;51.440;-2.054;2023-02-11T17:01:45;6.47;;;2.90;;
77022;SDS011;65952;51.440;-2.054;2023-02-11T17:04:25;8.85;;;4.88;;
77022;SDS011;65952;51.440;-2.054;2023-02-11T17:06:53;15.18;;;9.27;;
77022;SDS011;65952;51.440;-2.054;2023-02-11T17:09:19;19.75;;;9.75;;
77022;SDS011;65952;51.440;-2.054;2023-02-11T17:11:48;18.45;;;11.63;;
77022;SDS011;65952;51.440;-2.054;2023-02-11T17:14:13;18.80;;;10.23;;
77022;SDS011;65952;51.440;-2.054;2023-02-11T17:16:39;12.90;;;7.57;;
77022;SDS011;65952;51.440;-2.054;2023-02-11T17:19:06;5.80;;;2.92;;
77022;SDS011;65952;51.440;-2.054;2023-02-11T17:21:31;5.88;;;3.22;;
77022;SDS011;65952;51.440;-2.054;2023-02-11T17:23:58;4.78;;;2.80;;
77022;SDS011;65952;51.440;-2.054;2023-02-11T17:26:23;5.93;;;3.65;;
77022;SDS011;65952;51.440;-2.054;2023-02-11T17:28:49;6.40;;;3.45;;
77022;SDS011;65952;51.440;-2.054;2023-02-11T17:31:15;5.30;;;2.90;;
77022;SDS011;65952;51.440;-2.054;2023-02-11T17:33:40;6.20;;;3.45;;
77022;SDS011;65952;51.440;-2.054;2023-02-11T17:36:06;7.70;;;4.13;;
77022;SDS011;65952;51.440;-2.054;2023-02-11T17:38:33;6.60;;;3.28;;
77022;SDS011;65952;51.440;-2.054;2023-02-11T17:41:00;8.38;;;3.20;;
77022;SDS011;65952;51.440;-2.054;2023-02-11T17:43:27;7.97;;;3.80;;
77022;SDS011;65952;51.440;-2.054;2023-02-11T17:45:53;8.55;;;3.50;;